Time;durP1;ratioP1;P1;durP2;ratioP2;P2;SDS_P1;SDS_P2;PMS_P1;PMS_P2;Temp;Humidity;BMP_temperature;BMP_pressure;BME280_temperature;BME280_humidity;BME280_pressure;Samples;Min_cycle;Max_cycle;Signal;HPM_P1;HPM_P2
2023/07/27 00:01:12;;;;;;;0.50;0.50;;;;;;;12.20;100.00;97651.44;1223061;75;2922461;-66
2023/07/27 00:03:45;;;;;;;0.80;0.50;;;;;;;11.97;100.00;97644.25;1223571;75;2931987;-69
2023/07/27 00:06:18;;;;;;;0.55;0.40;;;;;;;11.99;100.00;97642.53;1222956;75;2921810;-66
2023/07/27 00:08:50;;;;;;;0.55;0.55;;;;;;;12.15;100.00;97641.94;1223046;75;2927216;-67
2023/07/27 00:11:26;;;;;;;0.80;0.60;;;;;;;11.88;100.00;97640.44;1223637;75;2929273;-65
2023/07/27 00:13:58;;;;;;;0.75;0.60;;;;;;;11.74;100.00;97644.03;1223663;75;2923665;-63
2023/07/27 00:16:31;;;;;;;1.45;0.80;;;;;;;11.54;100.00;97644.81;1223196;75;2924327;-66
2023/07/27 00:19:03;;;;;;;0.70;0.70;;;;;;;11.73;100.00;97650.72;1223626;75;2929096;-66
2023/07/27 00:21:36;;;;;;;0.75;0.60;;;;;;;11.55;100.00;97646.31;1220876;75;2924487;-66
2023/07/27 00:24:09;;;;;;;1.20;0.60;;;;;;;11.76;100.00;97640.78;1223201;75;2931128;-67
2023/07/27 00:26:44;;;;;;;0.60;0.50;;;;;;;11.46;100.00;97643.72;1223228;75;2932286;-63
2023/07/27 00:29:17;;;;;;;1.85;0.70;;;;;;;11.32;100.00;97639.06;1223419;75;2921337;-66
2023/07/27 00:31:50;;;;;;;1.50;0.60;;;;;;;11.66;100.00;97635.44;1222655;75;2928359;-66
2023/07/27 00:34:23;;;;;;;1.65;0.60;;;;;;;11.59;100.00;97635.13;1222215;75;2934206;-66
2023/07/27 00:36:55;;;;;;;0.40;0.40;;;;;;;11.70;100.00;97624.28;1223631;75;2923224;-66
2023/07/27 00:39:28;;;;;;;1.10;0.50;;;;;;;11.44;100.00;97627.75;1222852;75;2925296;-64
2023/07/27 00:42:03;;;;;;;0.40;0.40;;;;;;;11.61;100.00;97624.44;1223143;67;2919126;-65
2023/07/27 00:44:36;;;;;;;0.55;0.50;;;;;;;11.62;100.00;97629.44;1222997;75;2925799;-66
2023/07/27 00:47:09;;;;;;;0.40;0.40;;;;;;;11.58;100.00;97622.66;1223055;75;2930356;-67
2023/07/27 00:49:42;;;;;;;0.60;0.40;;;;;;;11.64;100.00;97628.94;1222788;75;2935706;-65
2023/07/27 00:52:15;;;;;;;0.65;0.50;;;;;;;11.56;100.00;97620.41;1222526;75;2910265;-65
2023/07/27 00:54:48;;;;;;;0.60;0.60;;;;;;;11.52;100.00;97631.59;1223492;75;2918067;-65
2023/07/27 00:57:23;;;;;;;0.75;0.60;;;;;;;11.35;100.00;97625.16;1223259;75;2925222;-65
2023/07/27 00:59:56;;;;;;;0.95;0.90;;;;;;;10.83;100.00;97644.22;1223471;75;2927842;-65
2023/07/27 01:02:28;;;;;;;0.80;0.80;;;;;;;10.84;100.00;97643.72;1223166;75;2928547;-66
2023/07/27 01:05:01;;;;;;;0.75;0.70;;;;;;;10.94;100.00;97640.84;1223127;75;2921725;-66
2023/07/27 01:07:34;;;;;;;1.75;0.80;;;;;;;11.08;100.00;97646.28;1223442;75;2926966;-66
2023/07/27 01:10:07;;;;;;;0.90;0.70;;;;;;;11.22;100.00;97652.16;1222473;75;2920690;-64
2023/07/27 01:12:48;;;;;;;1.00;0.65;;;;;;;11.05;100.00;97633.53;1222453;75;2921955;-65
2023/07/27 01:15:30;;;;;;;0.60;0.60;;;;;;;11.21;100.00;97642.47;1223140;75;2945620;-66
2023/07/27 01:18:10;;;;;;;3.40;1.05;;;;;;;10.58;100.00;97649.09;1223811;75;2927937;-68
2023/07/27 01:20:52;;;;;;;2.30;0.85;;;;;;;11.00;100.00;97649.91;1223044;75;2924638;-66
2023/07/27 01:24:12;;;;;;;1.05;0.90;;;;;;;11.18;100.00;97641.41;1223277;75;2922023;-68
2023/07/27 01:27:15;;;;;;;0.60;0.60;;;;;;;10.95;100.00;97643.13;1222558;75;2927954;-66
2023/07/27 01:30:55;;;;;;;0.85;0.75;;;;;;;11.08;100.00;97649.00;1223535;75;2928619;-66
2023/07/27 01:33:35;;;;;;;0.70;0.70;;;;;;;11.05;100.00;97649.97;1222358;75;2926427;-67
2023/07/27 01:36:13;;;;;;;0.50;0.50;;;;;;;11.14;100.00;97638.13;1222962;75;2932810;-66
2023/07/27 01:38:48;;;;;;;1.10;0.70;;;;;;;10.99;100.00;97643.69;1223368;75;2930143;-66
2023/07/27 01:41:22;;;;;;;0.85;0.80;;;;;;;10.73;100.00;97640.09;1222929;75;2926041;-65
2023/07/27 01:43:56;;;;;;;1.00;1.00;;;;;;;10.98;100.00;97644.16;1223046;75;2936041;-66
2023/07/27 01:46:31;;;;;;;0.90;0.70;;;;;;;10.97;100.00;97637.94;1222566;75;2938252;-65
2023/07/27 01:49:09;;;;;;;1.25;0.65;;;;;;;10.98;100.00;97661.34;1222608;75;2928231;-66
2023/07/27 01:51:44;;;;;;;1.30;1.20;;;;;;;10.10;100.00;97671.22;1222340;75;2943678;-65
2023/07/27 01:54:17;;;;;;;1.15;1.00;;;;;;;10.65;100.00;97675.31;1223197;75;2933437;-65
2023/07/27 01:56:50;;;;;;;1.10;0.90;;;;;;;10.87;100.00;97672.91;1222769;75;2924905;-64
2023/07/27 01:59:24;;;;;;;0.70;0.60;;;;;;;10.94;100.00;97660.78;1223420;75;2926444;-66
2023/07/27 02:01:58;;;;;;;0.40;0.40;;;;;;;10.88;100.00;97655.22;1223208;75;2917310;-66
2023/07/27 02:04:34;;;;;;;0.70;0.60;;;;;;;10.92;100.00;97666.00;1222745;75;2929164;-65
2023/07/27 02:07:06;;;;;;;0.85;0.70;;;;;;;10.78;100.00;97669.53;1223243;75;2927724;-65
2023/07/27 02:09:39;;;;;;;0.70;0.70;;;;;;;10.95;100.00;97673.25;1223631;75;2926501;-69
2023/07/27 02:12:22;;;;;;;1.30;1.15;;;;;;;10.22;100.00;97670.16;1223153;75;2925946;-66
2023/07/27 02:15:05;;;;;;;1.75;1.35;;;;;;;10.38;100.00;97676.41;1222695;75;2927653;-65
2023/07/27 02:17:43;;;;;;;1.65;1.10;;;;;;;10.62;100.00;97674.28;1222670;75;2926192;-68
2023/07/27 02:20:20;;;;;;;2.70;1.10;;;;;;;10.45;100.00;97676.00;1221739;75;2927675;-66
2023/07/27 02:22:54;;;;;;;1.25;1.10;;;;;;;10.69;100.00;97675.88;1223603;75;2921101;-66
2023/07/27 02:25:27;;;;;;;1.55;0.85;;;;;;;10.52;100.00;97678.38;1223949;75;2929076;-66
2023/07/27 02:28:00;;;;;;;0.90;0.80;;;;;;;10.78;100.00;97683.97;1223132;75;2928973;-68
2023/07/27 02:30:33;;;;;;;1.00;0.80;;;;;;;10.69;100.00;97692.31;1223370;75;2922020;-64
2023/07/27 02:33:05;;;;;;;0.85;0.70;;;;;;;10.49;100.00;97687.53;1223004;75;2930350;-65
2023/07/27 02:35:41;;;;;;;0.65;0.60;;;;;;;10.72;100.00;97687.84;1223582;75;2928015;-64
2023/07/27 02:38:14;;;;;;;1.00;0.70;;;;;;;10.65;100.00;97684.31;1220985;75;2927393;-67
2023/07/27 02:40:46;;;;;;;1.05;0.80;;;;;;;10.49;100.00;97690.28;1222346;75;2922370;-67
2023/07/27 02:43:19;;;;;;;1.15;1.05;;;;;;;10.41;100.00;97691.88;1223388;75;2932167;-63
2023/07/27 02:45:51;;;;;;;1.00;1.00;;;;;;;10.60;100.00;97709.59;1222829;75;2924704;-65
2023/07/27 02:48:24;;;;;;;1.90;1.00;;;;;;;10.61;100.00;97708.38;1222548;75;2933864;-66
2023/07/27 02:50:59;;;;;;;1.40;1.00;;;;;;;10.60;100.00;97711.56;1222101;75;2926967;-64
2023/07/27 02:53:32;;;;;;;1.60;1.30;;;;;;;10.60;100.00;97711.56;1222979;75;2927092;-65
2023/07/27 02:56:07;;;;;;;2.10;1.60;;;;;;;10.55;100.00;97709.50;1222751;75;2925904;-67
2023/07/27 02:58:39;;;;;;;2.95;2.45;;;;;;;10.43;100.00;97712.06;1223511;75;2917779;-65
2023/07/27 03:01:12;;;;;;;2.45;1.60;;;;;;;10.30;100.00;97697.94;1222893;75;2938977;-66
2023/07/27 03:03:45;;;;;;;1.80;1.50;;;;;;;10.44;100.00;97713.59;1223584;75;2925648;-68
2023/07/27 03:06:20;;;;;;;1.30;1.10;;;;;;;10.23;100.00;97712.72;1223100;75;2927411;-65
2023/07/27 03:08:52;;;;;;;1.65;1.20;;;;;;;10.15;100.00;97708.06;1222265;75;2950183;-66
2023/07/27 03:11:25;;;;;;;1.00;0.90;;;;;;;10.19;100.00;97716.84;1221939;75;2924177;-67
2023/07/27 03:14:01;;;;;;;3.60;1.80;;;;;;;9.81;100.00;97718.41;1222880;75;2923274;-66
2023/07/27 03:16:34;;;;;;;2.00;1.30;;;;;;;10.05;100.00;97706.66;1223138;75;2918410;-65
2023/07/27 03:19:07;;;;;;;2.15;1.25;;;;;;;10.18;100.00;97727.03;1222989;75;2929037;-66
2023/07/27 03:21:42;;;;;;;2.85;2.10;;;;;;;10.22;100.00;97726.84;1222441;75;2920264;-64
2023/07/27 03:24:16;;;;;;;2.35;1.20;;;;;;;10.27;100.00;97722.69;1222528;75;2922015;-65
2023/07/27 03:26:49;;;;;;;1.50;1.35;;;;;;;10.26;100.00;97723.94;1222724;75;2918557;-66
2023/07/27 03:29:21;;;;;;;1.95;1.20;;;;;;;10.26;100.00;97726.66;1222744;75;2921830;-64
2023/07/27 03:31:54;;;;;;;1.10;1.00;;;;;;;10.33;100.00;97715.38;1221915;75;2924110;-65
2023/07/27 03:34:26;;;;;;;2.30;0.90;;;;;;;10.13;100.00;97713.28;1222561;75;2923135;-66
2023/07/27 03:37:02;;;;;;;2.90;1.30;;;;;;;10.11;100.00;97707.53;1223452;75;2922258;-66
2023/07/27 03:39:34;;;;;;;0.90;0.90;;;;;;;10.12;100.00;97704.31;1222017;75;2935748;-68
2023/07/27 03:42:08;;;;;;;1.10;0.80;;;;;;;10.19;100.00;97709.41;1222386;75;2926696;-66
2023/07/27 03:44:42;;;;;;;2.40;0.90;;;;;;;9.93;100.00;97703.75;1222489;75;2930117;-66
2023/07/27 03:47:15;;;;;;;1.00;0.90;;;;;;;9.99;100.00;97703.84;1222279;75;2927212;-66
2023/07/27 03:49:47;;;;;;;1.20;0.90;;;;;;;10.15;100.00;97706.13;1220229;75;2930769;-66
2023/07/27 03:52:22;;;;;;;0.90;0.75;;;;;;;10.18;100.00;97710.63;1221803;75;2924592;-66
2023/07/27 03:54:55;;;;;;;1.10;0.70;;;;;;;10.11;100.00;97711.00;1221315;75;2926998;-65
2023/07/27 03:57:28;;;;;;;0.80;0.70;;;;;;;10.19;100.00;97714.88;1223701;75;2925557;-66
2023/07/27 04:00:02;;;;;;;1.15;0.70;;;;;;;10.10;100.00;97716.94;1222486;75;2922001;-66
2023/07/27 04:02:34;;;;;;;0.50;0.50;;;;;;;10.14;100.00;97709.31;1222229;75;2934444;-65
2023/07/27 04:05:08;;;;;;;1.90;0.65;;;;;;;10.20;100.00;97723.84;1223020;75;2945118;-65
2023/07/27 04:07:43;;;;;;;1.25;0.75;;;;;;;10.23;100.00;97729.13;1222908;75;2925597;-65
2023/07/27 04:10:16;;;;;;;0.40;0.40;;;;;;;10.26;100.00;97727.41;1221301;75;2932845;-66
2023/07/27 04:12:48;;;;;;;1.15;0.75;;;;;;;10.26;100.00;97723.94;1222734;75;2929187;-70
2023/07/27 04:15:21;;;;;;;1.50;1.20;;;;;;;10.23;100.00;97725.63;1223639;75;2922045;-64
2023/07/27 04:17:54;;;;;;;2.55;1.60;;;;;;;10.34;100.00;97725.88;1223141;75;2929884;-66
2023/07/27 04:20:26;;;;;;;3.40;2.45;;;;;;;10.34;100.00;97728.59;1222562;75;2929277;-66
2023/07/27 04:23:02;;;;;;;2.20;1.80;;;;;;;10.39;100.00;97718.94;1222741;75;2925975;-66
2023/07/27 04:25:34;;;;;;;2.65;2.10;;;;;;;10.37;100.00;97715.94;1222986;75;2928471;-65
2023/07/27 04:28:07;;;;;;;2.05;1.60;;;;;;;10.41;100.00;97711.03;1222061;75;2961219;-66
2023/07/27 04:30:40;;;;;;;2.00;1.20;;;;;;;10.52;100.00;97708.47;1222280;75;2917700;-67
2023/07/27 04:33:14;;;;;;;3.00;2.40;;;;;;;10.53;100.00;97712.72;1223407;75;2922029;-65
2023/07/27 04:35:47;;;;;;;2.30;1.80;;;;;;;10.59;100.00;97708.09;1223499;75;2947948;-66
2023/07/27 04:38:22;;;;;;;2.60;1.50;;;;;;;10.72;100.00;97718.72;1223198;75;2932091;-66
2023/07/27 04:40:55;;;;;;;2.00;1.60;;;;;;;10.73;100.00;97714.03;1222585;75;2930202;-66
2023/07/27 04:43:27;;;;;;;2.15;1.20;;;;;;;10.84;100.00;97709.44;1223182;75;2921249;-67
2023/07/27 04:46:00;;;;;;;0.80;0.80;;;;;;;11.08;100.00;97709.28;1223684;75;2940489;-65
2023/07/27 04:48:32;;;;;;;0.95;0.75;;;;;;;11.15;100.00;97705.38;1224015;75;2917643;-66
2023/07/27 04:51:05;;;;;;;1.10;0.90;;;;;;;11.09;100.00;97713.53;1222578;75;2931823;-66
2023/07/27 04:53:40;;;;;;;1.00;0.90;;;;;;;11.09;100.00;97710.06;1223293;75;2933774;-67
2023/07/27 04:56:13;;;;;;;0.80;0.80;;;;;;;11.12;100.00;97713.81;1223505;75;2920055;-70
2023/07/27 04:58:46;;;;;;;1.00;0.90;;;;;;;11.16;100.00;97711.63;1223089;75;2922509;-66
2023/07/27 05:01:19;;;;;;;1.75;1.20;;;;;;;11.09;100.00;97721.00;1222353;75;2927856;-66
2023/07/27 05:03:51;;;;;;;1.75;1.20;;;;;;;11.27;100.00;97720.00;1223324;75;2925488;-66
2023/07/27 05:06:24;;;;;;;2.70;0.95;;;;;;;11.41;100.00;97712.94;1222144;75;2925454;-65
2023/07/27 05:08:59;;;;;;;1.30;1.20;;;;;;;11.51;100.00;97717.06;1223184;75;2925073;-67
2023/07/27 05:11:32;;;;;;;1.90;0.85;;;;;;;11.57;100.00;97711.63;1222676;75;2923433;-63
2023/07/27 05:14:05;;;;;;;1.40;1.20;;;;;;;11.65;100.00;97704.50;1222915;75;2921414;-69
2023/07/27 05:16:37;;;;;;;2.85;0.95;;;;;;;11.80;100.00;97704.41;1222050;75;2924735;-67
2023/07/27 05:19:10;;;;;;;1.40;0.90;;;;;;;11.89;100.00;97702.28;1223593;75;2932812;-67
2023/07/27 05:21:42;;;;;;;1.10;1.00;;;;;;;12.00;100.00;97698.16;1218900;75;3197702;-67
2023/07/27 05:24:19;;;;;;;1.50;1.10;;;;;;;12.09;100.00;97706.22;1201836;75;4141126;-69
2023/07/27 05:26:51;;;;;;;1.70;1.00;;;;;;;12.13;100.00;97707.50;1216902;75;3199962;-67
2023/07/27 05:29:24;;;;;;;3.55;1.05;;;;;;;12.23;100.00;97710.09;1221697;75;2925217;-67
2023/07/27 05:31:57;;;;;;;1.50;1.20;;;;;;;12.40;100.00;97708.25;1222726;75;2936771;-67
2023/07/27 05:34:32;;;;;;;3.95;3.00;;;;;;;12.52;100.00;97709.84;1222932;75;2931344;-65
2023/07/27 05:37:04;;;;;;;3.85;2.50;;;;;;;12.54;100.00;97712.84;1223223;75;2929232;-66
2023/07/27 05:39:39;;;;;;;1.95;1.60;;;;;;;12.80;100.00;97717.53;1223019;75;2930787;-65
2023/07/27 05:42:12;;;;;;;3.15;1.70;;;;;;;12.90;100.00;97721.59;1223127;75;2933217;-66
2023/07/27 05:44:45;;;;;;;2.50;1.60;;;;;;;13.10;100.00;97725.47;1223149;75;2928336;-65
2023/07/27 05:47:18;;;;;;;3.80;1.95;;;;;;;13.22;100.00;97732.53;1223416;75;2926065;-67
2023/07/27 05:49:51;;;;;;;2.40;1.50;;;;;;;13.41;100.00;97735.66;1223214;75;2920010;-69
2023/07/27 05:52:23;;;;;;;1.80;1.05;;;;;;;13.51;100.00;97728.69;1224105;75;2933062;-68
2023/07/27 05:54:59;;;;;;;1.65;1.30;;;;;;;13.70;100.00;97734.53;1222961;75;2924985;-66
2023/07/27 05:57:31;;;;;;;4.65;1.20;;;;;;;13.64;100.00;97740.00;1222154;75;2919948;-65
2023/07/27 06:00:04;;;;;;;1.70;1.40;;;;;;;13.81;100.00;97739.31;1222825;75;2932885;-66
2023/07/27 06:02:36;;;;;;;2.45;1.80;;;;;;;13.84;100.00;97746.59;1221502;75;2928851;-67
2023/07/27 06:05:11;;;;;;;3.85;1.55;;;;;;;14.07;100.00;97733.63;1223584;75;2928083;-68
2023/07/27 06:07:44;;;;;;;2.25;1.50;;;;;;;13.97;100.00;97746.84;1223886;75;2938399;-66
2023/07/27 06:10:19;;;;;;;2.10;1.50;;;;;;;14.10;100.00;97740.16;1223076;75;2928239;-68
2023/07/27 06:12:52;;;;;;;3.50;1.80;;;;;;;14.08;100.00;97743.41;1224342;75;2920231;-66
2023/07/27 10:21:26;;;;;;;2.60;1.90;;;;;;;23.09;41.85;97586.19;77819;83;23134532;-69
2023/07/27 10:24:04;;;;;;;2.85;1.50;;;;;;;23.28;42.51;97582.97;1222605;75;2933035;-66
2023/07/27 10:26:51;;;;;;;2.10;1.30;;;;;;;22.81;43.58;97587.19;1223369;75;2942258;-69
2023/07/27 10:29:27;;;;;;;2.35;1.40;;;;;;;23.68;44.56;97582.94;1223204;75;2926683;-68
2023/07/27 10:32:10;;;;;;;1.60;1.35;;;;;;;23.44;42.13;97576.00;1222823;75;2908616;-67
2023/07/27 10:34:43;;;;;;;2.15;1.35;;;;;;;23.35;43.50;97573.81;1223633;75;2923668;-71
2023/07/27 10:37:19;;;;;;;1.95;1.40;;;;;;;23.93;42.70;97571.06;1223695;75;2926312;-71
2023/07/27 10:39:56;;;;;;;3.05;2.00;;;;;;;23.25;43.38;97570.88;1224175;75;2930797;-69
2023/07/27 10:42:30;;;;;;;3.40;1.60;;;;;;;23.29;43.91;97567.69;1224750;75;2922029;-64
2023/07/27 10:45:03;;;;;;;2.15;1.70;;;;;;;24.09;42.19;97560.53;1224159;75;2921485;-69
2023/07/27 10:47:38;;;;;;;1.50;1.30;;;;;;;23.65;41.94;97558.19;1223042;75;2921207;-68
2023/07/27 10:50:12;;;;;;;1.30;1.15;;;;;;;24.60;41.72;97550.75;1222985;75;2927831;-67
2023/07/27 10:52:50;;;;;;;3.40;1.30;;;;;;;24.52;39.32;97544.50;1221309;75;2925345;-69
2023/07/27 10:55:23;;;;;;;2.80;1.60;;;;;;;24.53;41.92;97541.13;1217462;75;2973664;-71
2023/07/27 10:57:58;;;;;;;2.15;1.35;;;;;;;24.48;41.74;97536.50;1221577;75;2922813;-69
2023/07/27 11:00:40;;;;;;;1.80;1.40;;;;;;;24.83;41.51;97530.94;1223472;75;2860250;-67
2023/07/27 11:03:13;;;;;;;1.95;1.45;;;;;;;23.73;41.06;97536.53;1222997;75;2930577;-66
2023/07/27 11:06:07;;;;;;;2.45;1.40;;;;;;;25.28;40.19;97521.25;1201394;75;3644664;-66
2023/07/27 11:08:44;;;;;;;4.35;1.50;;;;;;;25.21;41.34;97519.28;1180631;75;5149791;-66
2023/07/27 11:11:20;;;;;;;;;;;;;;;24.73;40.71;97518.91;1213113;75;3054228;-67
2023/07/27 11:13:53;;;;;;;2.35;1.50;;;;;;;25.63;40.78;97520.38;1185305;75;5989555;-71
2023/07/27 11:16:27;;;;;;;2.90;1.80;;;;;;;25.16;39.88;97516.69;1213689;75;2968050;-69
2023/07/27 11:19:00;;;;;;;3.10;1.50;;;;;;;25.05;41.09;97515.91;1222385;75;2922073;-67
2023/07/27 11:21:34;;;;;;;2.20;1.80;;;;;;;24.93;40.71;97523.34;1223011;75;2922875;-65
2023/07/27 11:24:11;;;;;;;1.95;1.40;;;;;;;25.40;40.41;97509.50;1222301;75;2942112;-69
2023/07/27 11:26:44;;;;;;;2.20;1.40;;;;;;;25.09;39.47;97507.09;1222634;75;2920459;-71
2023/07/27 11:29:17;;;;;;;2.55;1.30;;;;;;;25.33;40.15;97502.69;1222089;75;2921896;-68
2023/07/27 11:31:58;;;;;;;2.05;1.30;;;;;;;25.79;39.08;97488.00;1222206;75;2930493;-68
2023/07/27 11:34:32;;;;;;;2.05;1.30;;;;;;;26.47;40.17;97495.84;1223173;75;2920369;-71
2023/07/27 11:37:05;;;;;;;2.35;1.60;;;;;;;26.03;40.19;97496.81;1222244;75;2925338;-68
2023/07/27 11:39:40;;;;;;;2.55;1.90;;;;;;;25.27;39.46;97491.00;1222502;75;2927403;-68
2023/07/27 11:42:13;;;;;;;3.35;1.60;;;;;;;25.56;38.34;97490.41;1222858;75;2921013;-69
2023/07/27 11:44:46;;;;;;;2.30;1.30;;;;;;;26.18;38.88;97487.38;1222762;75;2931478;-68
2023/07/27 11:47:18;;;;;;;1.70;1.40;;;;;;;25.70;39.83;97478.22;1222401;75;2936011;-68
2023/07/27 11:49:54;;;;;;;2.55;1.85;;;;;;;25.37;38.84;97486.19;1222554;75;2924419;-67
2023/07/27 11:52:28;;;;;;;2.55;1.80;;;;;;;26.01;39.55;97488.97;1222667;75;2921598;-68
2023/07/27 11:55:04;;;;;;;2.15;1.50;;;;;;;26.42;39.74;97480.75;1222969;75;2924905;-67
2023/07/27 11:57:37;;;;;;;2.15;1.60;;;;;;;25.59;39.78;97481.59;1222320;75;2932460;-67
2023/07/27 12:00:13;;;;;;;4.30;1.70;;;;;;;26.33;39.59;97482.22;1221964;75;2929219;-70
2023/07/27 12:02:49;;;;;;;2.65;1.40;;;;;;;25.70;40.46;97481.03;1221623;75;2930329;-65
2023/07/27 12:05:22;;;;;;;1.95;1.40;;;;;;;25.15;40.00;97476.75;1222933;75;2928378;-66
2023/07/27 12:07:58;;;;;;;2.00;1.50;;;;;;;24.71;40.82;97473.97;1222194;75;2935853;-67
2023/07/27 12:10:34;;;;;;;1.75;1.50;;;;;;;25.41;41.01;97461.28;1222872;75;2922501;-71
2023/07/27 12:13:11;;;;;;;1.95;1.35;;;;;;;25.17;40.21;97468.53;1221500;67;2962184;-70
2023/07/27 12:15:44;;;;;;;2.30;1.40;;;;;;;26.14;39.07;97454.91;1222521;75;2936711;-68
2023/07/27 12:18:17;;;;;;;2.25;1.00;;;;;;;26.50;38.88;97453.28;1221033;75;2933598;-68
2023/07/27 12:20:50;;;;;;;3.40;1.50;;;;;;;27.06;39.64;97435.53;1222304;75;2935706;-67
2023/07/27 12:23:23;;;;;;;2.25;1.50;;;;;;;27.01;41.39;97430.91;1222531;75;2923897;-67
2023/07/27 12:25:58;;;;;;;2.15;1.35;;;;;;;26.92;39.01;97440.13;1221775;75;2934977;-68
2023/07/27 12:28:31;;;;;;;2.25;1.70;;;;;;;26.93;39.21;97431.09;1222592;75;2931147;-65
2023/07/27 12:31:04;;;;;;;2.20;1.40;;;;;;;26.90;39.18;97428.75;1221685;75;2927376;-69
2023/07/27 12:33:37;;;;;;;2.15;1.70;;;;;;;26.78;39.21;97426.53;1222209;75;2922835;-66
2023/07/27 12:36:10;;;;;;;2.85;1.55;;;;;;;26.88;39.08;97425.78;1222897;75;2928688;-68
2023/07/27 12:38:42;;;;;;;1.50;1.10;;;;;;;27.80;38.58;97418.06;1222687;75;2934956;-68
2023/07/27 12:41:18;;;;;;;1.50;1.25;;;;;;;26.53;38.76;97424.06;1221555;75;2918384;-65
2023/07/27 12:43:51;;;;;;;3.30;1.30;;;;;;;25.73;40.75;97417.41;1222118;75;2927535;-68
2023/07/27 12:46:23;;;;;;;1.75;1.40;;;;;;;25.68;40.45;97418.44;1222855;75;2929126;-65
2023/07/27 12:48:56;;;;;;;3.70;1.40;;;;;;;25.81;38.72;97417.28;1221651;75;2929475;-68
2023/07/27 12:51:28;;;;;;;1.50;1.20;;;;;;;26.82;37.30;97411.31;1222558;75;2914501;-69
2023/07/27 12:54:04;;;;;;;1.70;1.30;;;;;;;26.62;38.60;97408.53;1222987;75;2946346;-67
2023/07/27 12:56:39;;;;;;;1.90;1.35;;;;;;;26.06;38.76;97405.84;1222383;75;2922874;-69
2023/07/27 12:59:12;;;;;;;2.65;1.60;;;;;;;27.68;38.68;97395.47;1222507;75;2960028;-68
2023/07/27 13:01:45;;;;;;;3.00;2.25;;;;;;;26.74;39.61;97397.44;1218012;75;3049889;-70
2023/07/27 13:04:17;;;;;;;2.95;1.70;;;;;;;27.04;38.48;97398.13;1222017;75;2931356;-68
2023/07/27 13:06:50;;;;;;;1.60;1.50;;;;;;;27.68;38.76;97400.38;1223310;75;2924222;-69
2023/07/27 13:09:23;;;;;;;1.25;1.10;;;;;;;28.42;38.53;97394.69;1222503;75;2924662;-69
2023/07/27 13:11:58;;;;;;;2.15;1.65;;;;;;;26.14;39.08;97395.22;1222283;75;2939358;-67
2023/07/27 13:14:30;;;;;;;1.90;1.50;;;;;;;26.85;40.34;97384.84;1223204;75;2948100;-67
2023/07/27 13:17:03;;;;;;;1.95;1.55;;;;;;;26.21;39.12;97388.00;1223472;75;2930478;-67
2023/07/27 13:19:36;;;;;;;2.05;1.30;;;;;;;25.55;39.92;97388.75;1222604;75;2922353;-72
2023/07/27 13:22:09;;;;;;;2.40;1.45;;;;;;;26.30;38.65;97387.25;1222514;75;2921621;-70
2023/07/27 13:24:42;;;;;;;3.60;1.80;;;;;;;26.20;39.18;97389.34;1221319;75;2934272;-69
2023/07/27 13:27:17;;;;;;;2.10;1.70;;;;;;;25.92;39.57;97386.63;1220796;75;2919927;-68
2023/07/27 13:29:50;;;;;;;3.10;2.15;;;;;;;26.10;39.35;97392.13;1218301;75;3155422;-67
2023/07/27 13:32:23;;;;;;;5.20;4.10;;;;;;;26.79;39.53;97390.75;1223408;75;2920474;-67
2023/07/27 13:34:56;;;;;;;1.65;1.40;;;;;;;26.35;38.93;97389.03;1223099;75;2933213;-68
2023/07/27 13:37:29;;;;;;;1.80;1.50;;;;;;;26.65;38.97;97393.31;1220581;75;2927001;-67
2023/07/27 13:40:02;;;;;;;1.30;1.10;;;;;;;26.94;37.34;97372.84;1220095;75;2924739;-69
2023/07/27 13:42:37;;;;;;;2.35;1.50;;;;;;;26.89;38.62;97371.06;1221488;75;2922212;-66
2023/07/27 13:45:13;;;;;;;2.20;1.60;;;;;;;26.12;40.34;97375.44;1222956;75;2918157;-67
2023/07/27 13:47:46;;;;;;;1.60;1.30;;;;;;;26.00;41.01;97371.72;1221917;75;2931256;-69
2023/07/27 13:50:18;;;;;;;2.65;1.70;;;;;;;25.60;41.53;97365.31;1221511;75;2927977;-69
2023/07/27 13:52:51;;;;;;;2.70;1.75;;;;;;;25.49;40.94;97371.47;1221075;75;2928725;-66
2023/07/27 13:55:23;;;;;;;4.10;1.80;;;;;;;25.97;40.59;97372.91;1222646;75;2928851;-68
2023/07/27 13:57:59;;;;;;;2.30;1.65;;;;;;;26.08;40.00;97367.47;1220859;75;2918931;-68
2023/07/27 14:00:31;;;;;;;1.65;1.40;;;;;;;26.51;40.18;97359.31;1222208;75;2919193;-67
2023/07/27 14:03:04;;;;;;;2.50;1.65;;;;;;;26.20;39.79;97361.28;1221880;75;2937974;-71
2023/07/27 14:05:39;;;;;;;2.55;1.55;;;;;;;25.11;40.48;97360.84;1222466;75;2912058;-70
2023/07/27 14:08:12;;;;;;;1.60;1.30;;;;;;;25.60;40.10;97359.72;1224045;75;2908938;-67
2023/07/27 14:10:45;;;;;;;1.80;1.20;;;;;;;25.70;40.59;97349.25;1222762;75;2929439;-69
2023/07/27 14:13:20;;;;;;;1.50;1.25;;;;;;;25.77;41.32;97358.84;1223006;75;2920336;-66
2023/07/27 14:15:52;;;;;;;1.65;1.35;;;;;;;25.29;41.29;97354.59;1221935;75;2926570;-68
2023/07/27 14:18:25;;;;;;;1.55;1.30;;;;;;;25.97;42.46;97350.47;1222129;75;2930426;-69
2023/07/27 14:20:58;;;;;;;2.30;1.50;;;;;;;25.14;41.76;97351.28;1222412;75;2923105;-69
2023/07/27 14:23:30;;;;;;;1.45;1.25;;;;;;;25.54;40.74;97341.69;1222357;75;2922856;-71
2023/07/27 14:26:03;;;;;;;2.25;1.70;;;;;;;24.55;42.06;97336.97;1222520;75;2923732;-67
2023/07/27 14:28:38;;;;;;;2.60;2.00;;;;;;;26.00;41.50;97330.41;1222935;75;2930807;-68
2023/07/27 14:31:10;;;;;;;2.05;1.60;;;;;;;26.12;41.78;97338.97;1222670;75;2922077;-70
2023/07/27 14:33:46;;;;;;;2.00;1.15;;;;;;;26.07;41.74;97340.00;1223906;75;2924148;-67
2023/07/27 14:36:18;;;;;;;2.25;1.50;;;;;;;25.71;40.59;97336.72;1223113;75;2924442;-68
2023/07/27 14:38:51;;;;;;;1.70;1.30;;;;;;;26.21;39.59;97335.41;1223789;75;2918164;-68
2023/07/27 14:41:23;;;;;;;1.75;1.35;;;;;;;26.25;41.70;97337.78;1223392;75;2923053;-69
2023/07/27 14:43:58;;;;;;;2.65;1.75;;;;;;;25.53;43.00;97343.03;1224195;75;2919939;-68
2023/07/27 14:46:32;;;;;;;1.95;1.20;;;;;;;25.69;40.96;97328.16;1223585;75;2922665;-69
2023/07/27 14:49:05;;;;;;;2.65;1.40;;;;;;;26.35;41.44;97325.22;1222741;75;2921480;-67
2023/07/27 14:51:37;;;;;;;2.05;1.30;;;;;;;26.04;41.79;97329.97;1222563;75;2948305;-67
2023/07/27 14:54:10;;;;;;;1.40;1.20;;;;;;;25.98;41.74;97326.69;1222888;75;2924605;-70
2023/07/27 14:56:45;;;;;;;2.55;1.65;;;;;;;25.85;41.97;97319.44;1223720;75;2923991;-70
2023/07/27 14:59:21;;;;;;;3.00;1.50;;;;;;;26.06;43.25;97318.91;1222585;75;2929593;-65
2023/07/27 15:01:54;;;;;;;2.00;1.30;;;;;;;25.96;42.22;97316.09;1223219;75;2923855;-68
2023/07/27 15:04:27;;;;;;;2.40;1.45;;;;;;;25.32;42.83;97310.66;1223755;75;2920535;-70
2023/07/27 15:07:01;;;;;;;4.15;1.50;;;;;;;24.88;45.49;97312.25;1223345;75;2920023;-68
2023/07/27 15:09:34;;;;;;;1.45;1.25;;;;;;;25.62;44.71;97308.66;1222687;75;2924782;-68
2023/07/27 15:12:09;;;;;;;1.65;1.25;;;;;;;25.82;44.37;97307.34;1222629;67;2927035;-72
2023/07/27 15:14:44;;;;;;;2.70;1.40;;;;;;;25.59;45.09;97307.78;1222961;75;2930995;-66
2023/07/27 15:17:17;;;;;;;1.70;1.30;;;;;;;25.99;44.84;97311.38;1221589;75;2924512;-66
2023/07/27 15:19:50;;;;;;;1.75;1.25;;;;;;;26.05;44.52;97306.94;1222884;75;2928167;-70
2023/07/27 15:22:22;;;;;;;1.90;1.20;;;;;;;25.51;44.95;97309.97;1221047;75;2925294;-69
2023/07/27 15:24:55;;;;;;;2.30;1.80;;;;;;;26.01;44.40;97306.63;1222647;75;2926474;-73
2023/07/27 15:27:27;;;;;;;2.35;1.80;;;;;;;25.58;44.39;97292.28;1222476;75;2933955;-68
2023/07/27 15:30:03;;;;;;;2.60;2.20;;;;;;;25.96;44.25;97293.66;1222647;75;2926962;-70
2023/07/27 15:32:36;;;;;;;3.50;1.30;;;;;;;25.09;44.22;97286.56;1222563;75;2928684;-70
2023/07/27 15:35:10;;;;;;;4.80;3.95;;;;;;;25.68;44.46;97289.47;1223060;75;2929904;-68
2023/07/27 15:37:42;;;;;;;2.30;1.65;;;;;;;25.51;44.41;97291.09;1223151;75;2927910;-67
2023/07/27 15:40:17;;;;;;;1.50;1.20;;;;;;;25.31;43.63;97283.97;1221989;75;2926938;-66
2023/07/27 15:42:50;;;;;;;2.10;1.20;;;;;;;25.30;44.00;97279.69;1222359;75;2925327;-67
2023/07/27 15:45:25;;;;;;;2.25;1.10;;;;;;;25.88;43.54;97276.22;1223677;75;2924874;-67
2023/07/27 15:47:58;;;;;;;1.95;1.30;;;;;;;25.76;44.65;97272.50;1223207;75;2918850;-73
2023/07/27 15:50:30;;;;;;;3.05;1.40;;;;;;;25.01;44.47;97266.31;1222578;75;2924621;-69
2023/07/27 15:53:03;;;;;;;1.80;1.30;;;;;;;25.38;44.69;97271.91;1221735;75;2934663;-67